sensor_id;sensor_type;location;lat;lon;timestamp;pressure;altitude;pressure_sealevel;temperature;humidity
77047;BME280;65977;56.380;44.022;2023-02-10T00:02:25;102102.97;;;0.59;56.40
77047;BME280;65977;56.380;44.022;2023-02-10T00:04:50;102100.38;;;0.59;56.40
77047;BME280;65977;56.380;44.022;2023-02-10T00:07:19;102102.13;;;0.59;56.28
77047;BME280;65977;56.380;44.022;2023-02-10T00:09:45;102082.28;;;0.53;56.14
77047;BME280;65977;56.380;44.022;2023-02-10T00:12:11;102084.88;;;0.53;56.07
77047;BME280;65977;56.380;44.022;2023-02-10T00:14:37;102085.69;;;0.57;55.69
77047;BME280;65977;56.380;44.022;2023-02-10T00:17:03;102084.78;;;0.59;56.03
77047;BME280;65977;56.380;44.022;2023-02-10T00:19:29;102087.25;;;0.66;56.09
77047;BME280;65977;56.380;44.022;2023-02-10T00:21:57;102078.59;;;0.65;55.74
77047;BME280;65977;56.380;44.022;2023-02-10T00:24:23;102068.16;;;0.67;55.62
77047;BME280;65977;56.380;44.022;2023-02-10T00:26:49;102080.19;;;0.72;55.58
77047;BME280;65977;56.380;44.022;2023-02-10T00:29:15;102070.75;;;0.68;55.58
77047;BME280;65977;56.380;44.022;2023-02-10T00:31:42;102056.81;;;0.69;55.79
77047;BME280;65977;56.380;44.022;2023-02-10T00:34:13;102060.22;;;0.73;55.27
77047;BME280;65977;56.380;44.022;2023-02-10T00:36:39;102053.31;;;0.72;55.13
77047;BME280;65977;56.380;44.022;2023-02-10T00:39:06;102046.34;;;0.72;55.22
77047;BME280;65977;56.380;44.022;2023-02-10T00:41:31;102042.88;;;0.73;55.60
77047;BME280;65977;56.380;44.022;2023-02-10T00:43:57;102034.16;;;0.76;55.28
77047;BME280;65977;56.380;44.022;2023-02-10T00:46:22;102036.69;;;0.79;55.13
77047;BME280;65977;56.380;44.022;2023-02-10T00:48:49;102030.59;;;0.80;55.49
77047;BME280;65977;56.380;44.022;2023-02-10T00:51:16;102026.28;;;0.79;55.37
77047;BME280;65977;56.380;44.022;2023-02-10T00:53:42;102023.69;;;0.79;55.29
77047;BME280;65977;56.380;44.022;2023-02-10T00:56:09;102025.44;;;0.77;55.22
77047;BME280;65977;56.380;44.022;2023-02-10T00:58:35;102014.16;;;0.78;54.71
77047;BME280;65977;56.380;44.022;2023-02-10T01:01:02;102021.91;;;0.81;55.46
77047;BME280;65977;56.380;44.022;2023-02-10T01:03:28;102010.59;;;0.82;55.04
77047;BME280;65977;56.380;44.022;2023-02-10T01:05:53;102007.22;;;0.78;54.73
77047;BME280;65977;56.380;44.022;2023-02-10T01:08:19;102007.97;;;0.83;55.19
77047;BME280;65977;56.380;44.022;2023-02-10T01:10:45;102004.50;;;0.83;54.98
77047;BME280;65977;56.380;44.022;2023-02-10T01:13:12;102004.50;;;0.83;54.96
77047;BME280;65977;56.380;44.022;2023-02-10T01:15:45;101993.22;;;0.84;55.22
77047;BME280;65977;56.380;44.022;2023-02-10T01:18:11;102009.66;;;0.84;55.13
77047;BME280;65977;56.380;44.022;2023-02-10T01:20:39;102000.13;;;0.85;54.99
77047;BME280;65977;56.380;44.022;2023-02-10T01:23:05;101990.53;;;0.87;55.02
77047;BME280;65977;56.380;44.022;2023-02-10T01:25:33;101994.09;;;0.83;54.55
77047;BME280;65977;56.380;44.022;2023-02-10T01:27:59;101994.91;;;0.85;55.02
77047;BME280;65977;56.380;44.022;2023-02-10T01:30:25;101983.75;;;0.80;54.74
77047;BME280;65977;56.380;44.022;2023-02-10T01:32:53;101982.84;;;0.82;54.86
77047;BME280;65977;56.380;44.022;2023-02-10T01:35:19;101964.69;;;0.79;55.08
77047;BME280;65977;56.380;44.022;2023-02-10T01:37:45;101972.53;;;0.78;54.61
77047;BME280;65977;56.380;44.022;2023-02-10T01:40:11;101964.72;;;0.78;54.67
77047;BME280;65977;56.380;44.022;2023-02-10T01:42:37;101976.81;;;0.80;55.05
77047;BME280;65977;56.380;44.022;2023-02-10T01:45:36;101976.00;;;0.78;54.81
77047;BME280;65977;56.380;44.022;2023-02-10T01:48:03;101980.50;;;0.70;55.49
77047;BME280;65977;56.380;44.022;2023-02-10T01:50:51;101978.66;;;0.75;55.28
77047;BME280;65977;56.380;44.022;2023-02-10T01:53:17;101976.06;;;0.75;55.09
77047;BME280;65977;56.380;44.022;2023-02-10T01:55:47;101961.25;;;0.77;55.43
77047;BME280;65977;56.380;44.022;2023-02-10T01:58:15;101965.66;;;0.75;55.39
77047;BME280;65977;56.380;44.022;2023-02-10T02:00:43;101950.03;;;0.75;55.29
77047;BME280;65977;56.380;44.022;2023-02-10T02:03:09;101950.09;;;0.72;55.11
77047;BME280;65977;56.380;44.022;2023-02-10T02:05:39;101956.13;;;0.74;55.08
77047;BME280;65977;56.380;44.022;2023-02-10T02:08:27;101946.63;;;0.73;55.43
77047;BME280;65977;56.380;44.022;2023-02-10T02:11:14;101942.47;;;0.64;55.63
77047;BME280;65977;56.380;44.022;2023-02-10T02:33:50;101929.53;;;0.61;55.05
77047;BME280;65977;56.380;44.022;2023-02-10T02:36:27;101919.13;;;0.61;54.52
77047;BME280;65977;56.380;44.022;2023-02-10T02:38:59;101915.78;;;0.56;54.93
77047;BME280;65977;56.380;44.022;2023-02-10T02:41:26;101908.03;;;0.55;54.54
77047;BME280;65977;56.380;44.022;2023-02-10T02:43:52;101905.50;;;0.52;55.55
77047;BME280;65977;56.380;44.022;2023-02-10T02:56:56;101896.25;;;0.39;56.21
77047;BME280;65977;56.380;44.022;2023-02-10T03:02:06;101892.03;;;0.35;55.87
77047;BME280;65977;56.380;44.022;2023-02-10T03:04:34;101894.59;;;0.36;56.14
77047;BME280;65977;56.380;44.022;2023-02-10T03:07:01;101891.97;;;0.36;56.45
77047;BME280;65977;56.380;44.022;2023-02-10T03:09:27;101884.16;;;0.38;56.59
77047;BME280;65977;56.380;44.022;2023-02-10T03:11:54;101871.19;;;0.36;56.00
77047;BME280;65977;56.380;44.022;2023-02-10T03:14:20;101870.38;;;0.34;56.28
77047;BME280;65977;56.380;44.022;2023-02-10T03:16:45;101875.63;;;0.31;56.04
77047;BME280;65977;56.380;44.022;2023-02-10T03:19:11;101871.34;;;0.30;55.71
77047;BME280;65977;56.380;44.022;2023-02-10T03:21:37;101869.56;;;0.31;55.74
77047;BME280;65977;56.380;44.022;2023-02-10T03:24:03;101867.91;;;0.28;56.19
77047;BME280;65977;56.380;44.022;2023-02-10T03:26:29;101873.97;;;0.29;56.01
77047;BME280;65977;56.380;44.022;2023-02-10T03:28:55;101874.00;;;0.27;55.94
77047;BME280;65977;56.380;44.022;2023-02-10T03:31:21;101866.22;;;0.26;56.01
77047;BME280;65977;56.380;44.022;2023-02-10T03:33:47;101868.09;;;0.19;56.18
77047;BME280;65977;56.380;44.022;2023-02-10T03:36:12;101854.25;;;0.19;56.04
77047;BME280;65977;56.380;44.022;2023-02-10T03:38:38;101863.84;;;0.17;56.07
77047;BME280;65977;56.380;44.022;2023-02-10T03:41:04;101852.63;;;0.13;55.60
77047;BME280;65977;56.380;44.022;2023-02-10T03:43:30;101849.97;;;0.18;55.97
77047;BME280;65977;56.380;44.022;2023-02-10T03:46:02;101852.69;;;0.12;56.33
77047;BME280;65977;56.380;44.022;2023-02-10T03:48:28;101840.56;;;0.11;56.12
77047;BME280;65977;56.380;44.022;2023-02-10T03:50:58;101838.84;;;0.11;56.00
77047;BME280;65977;56.380;44.022;2023-02-10T03:53:24;101844.94;;;0.09;56.32
77047;BME280;65977;56.380;44.022;2023-02-10T03:55:50;101828.47;;;0.10;56.20
77047;BME280;65977;56.380;44.022;2023-02-10T03:58:16;101835.59;;;0.02;56.19
77047;BME280;65977;56.380;44.022;2023-02-10T04:00:41;101845.84;;;0.08;56.23
77047;BME280;65977;56.380;44.022;2023-02-10T04:03:07;101830.28;;;0.08;56.09
77047;BME280;65977;56.380;44.022;2023-02-10T04:05:33;101836.28;;;0.10;56.33
77047;BME280;65977;56.380;44.022;2023-02-10T04:07:58;101841.41;;;0.13;56.37
77047;BME280;65977;56.380;44.022;2023-02-10T04:10:25;101820.00;;;0.02;56.60
77047;BME280;65977;56.380;44.022;2023-02-10T04:12:52;101829.44;;;0.06;56.25
77047;BME280;65977;56.380;44.022;2023-02-10T04:15:18;101811.47;;;-0.05;56.86
77047;BME280;65977;56.380;44.022;2023-02-10T04:17:44;101819.13;;;0.01;56.77
77047;BME280;65977;56.380;44.022;2023-02-10T04:20:10;101798.41;;;-0.01;56.93
77047;BME280;65977;56.380;44.022;2023-02-10T04:22:39;101802.75;;;-0.03;57.08
77047;BME280;65977;56.380;44.022;2023-02-10T04:25:05;101807.19;;;-0.08;56.74
77047;BME280;65977;56.380;44.022;2023-02-10T04:27:31;101816.78;;;-0.10;57.31
77047;BME280;65977;56.380;44.022;2023-02-10T04:29:57;101826.19;;;-0.04;57.07
77047;BME280;65977;56.380;44.022;2023-02-10T04:32:23;101801.97;;;-0.06;57.27
77047;BME280;65977;56.380;44.022;2023-02-10T04:34:48;101808.78;;;-0.01;57.62
77047;BME280;65977;56.380;44.022;2023-02-10T04:37:14;101805.44;;;-0.06;57.91
77047;BME280;65977;56.380;44.022;2023-02-10T04:39:40;101806.22;;;-0.02;57.43
77047;BME280;65977;56.380;44.022;2023-02-10T04:42:06;101782.97;;;-0.08;57.53
77047;BME280;65977;56.380;44.022;2023-02-10T04:44:31;101795.75;;;0.03;57.46
77047;BME280;65977;56.380;44.022;2023-02-10T04:46:57;101774.16;;;-0.01;57.56
77047;BME280;65977;56.380;44.022;2023-02-10T04:49:24;101788.72;;;0.06;57.80
77047;BME280;65977;56.380;44.022;2023-02-10T04:51:49;101780.06;;;0.06;57.41
77047;BME280;65977;56.380;44.022;2023-02-10T04:54:15;101765.38;;;0.05;57.70
77047;BME280;65977;56.380;44.022;2023-02-10T04:56:41;101763.59;;;0.07;57.46
77047;BME280;65977;56.380;44.022;2023-02-10T04:59:07;101751.34;;;0.12;57.55
77047;BME280;65977;56.380;44.022;2023-02-10T05:01:33;101765.13;;;0.15;57.22
77047;BME280;65977;56.380;44.022;2023-02-10T05:03:59;101765.03;;;0.18;57.41
77047;BME280;65977;56.380;44.022;2023-02-10T05:06:25;101756.53;;;0.12;57.47
77047;BME280;65977;56.380;44.022;2023-02-10T05:08:52;101757.22;;;0.20;56.67
77047;BME280;65977;56.380;44.022;2023-02-10T05:11:18;101752.09;;;0.17;57.22
77047;BME280;65977;56.380;44.022;2023-02-10T05:13:44;101746.19;;;0.10;57.57
77047;BME280;65977;56.380;44.022;2023-02-10T05:16:12;101748.50;;;0.22;57.40
77047;BME280;65977;56.380;44.022;2023-02-10T05:18:38;101751.28;;;0.15;56.99
77047;BME280;65977;56.380;44.022;2023-02-10T05:21:08;101747.81;;;0.14;57.03
77047;BME280;65977;56.380;44.022;2023-02-10T05:23:35;101754.50;;;0.24;57.08
77047;BME280;65977;56.380;44.022;2023-02-10T05:26:01;101748.31;;;0.28;56.81
77047;BME280;65977;56.380;44.022;2023-02-10T05:28:26;101757.91;;;0.28;56.37
77047;BME280;65977;56.380;44.022;2023-02-10T05:30:53;101733.75;;;0.23;56.21
77047;BME280;65977;56.380;44.022;2023-02-10T05:33:19;101745.59;;;0.34;56.46
77047;BME280;65977;56.380;44.022;2023-02-10T05:35:45;101733.44;;;0.35;56.43
77047;BME280;65977;56.380;44.022;2023-02-10T05:38:11;101740.28;;;0.39;56.14
77047;BME280;65977;56.380;44.022;2023-02-10T05:40:42;101735.06;;;0.40;56.35
77047;BME280;65977;56.380;44.022;2023-02-10T05:43:11;101736.00;;;0.36;55.67
77047;BME280;65977;56.380;44.022;2023-02-10T05:45:36;101714.28;;;0.39;55.80
77047;BME280;65977;56.380;44.022;2023-02-10T05:48:02;101725.59;;;0.38;56.15
77047;BME280;65977;56.380;44.022;2023-02-10T05:50:28;101716.13;;;0.35;56.38
77047;BME280;65977;56.380;44.022;2023-02-10T05:52:54;101714.19;;;0.42;56.22
77047;BME280;65977;56.380;44.022;2023-02-10T05:55:21;101709.13;;;0.37;55.78
77047;BME280;65977;56.380;44.022;2023-02-10T05:57:46;101708.84;;;0.48;55.28
77047;BME280;65977;56.380;44.022;2023-02-10T06:00:24;101690.84;;;0.40;55.09
77047;BME280;65977;56.380;44.022;2023-02-10T06:02:53;101707.22;;;0.44;55.43
77047;BME280;65977;56.380;44.022;2023-02-10T06:05:27;101698.19;;;0.57;55.41
77047;BME280;65977;56.380;44.022;2023-02-10T06:07:53;101671.63;;;0.46;55.21
77047;BME280;65977;56.380;44.022;2023-02-10T06:10:22;101674.56;;;0.66;54.98
77047;BME280;65977;56.380;44.022;2023-02-10T06:12:48;101678.66;;;0.75;54.70
77047;BME280;65977;56.380;44.022;2023-02-10T06:15:14;101706.38;;;0.76;53.93
77047;BME280;65977;56.380;44.022;2023-02-10T06:17:39;101675.84;;;0.82;54.17
77047;BME280;65977;56.380;44.022;2023-02-10T06:20:05;101673.44;;;0.75;53.49
77047;BME280;65977;56.380;44.022;2023-02-10T06:22:31;101680.88;;;0.88;53.40
77047;BME280;65977;56.380;44.022;2023-02-10T06:24:56;101673.16;;;0.85;53.96
77047;BME280;65977;56.380;44.022;2023-02-10T06:27:22;101660.22;;;0.84;53.05
77047;BME280;65977;56.380;44.022;2023-02-10T06:29:47;101671.06;;;0.98;53.50
77047;BME280;65977;56.380;44.022;2023-02-10T06:32:13;101658.78;;;1.03;52.95
77047;BME280;65977;56.380;44.022;2023-02-10T06:34:39;101654.94;;;1.16;52.96
77047;BME280;65977;56.380;44.022;2023-02-10T06:37:06;101657.53;;;1.16;52.77
77047;BME280;65977;56.380;44.022;2023-02-10T06:39:31;101652.81;;;1.28;52.85
77047;BME280;65977;56.380;44.022;2023-02-10T06:41:57;101654.16;;;1.42;52.47
77047;BME280;65977;56.380;44.022;2023-02-10T06:44:25;101639.25;;;1.47;52.30
77047;BME280;65977;56.380;44.022;2023-02-10T06:46:50;101638.84;;;1.59;52.03
77047;BME280;65977;56.380;44.022;2023-02-10T06:49:16;101626.69;;;1.59;52.02
77047;BME280;65977;56.380;44.022;2023-02-10T06:51:41;101642.22;;;1.62;50.98
77047;BME280;65977;56.380;44.022;2023-02-10T06:54:07;101621.88;;;1.73;51.36
77047;BME280;65977;56.380;44.022;2023-02-10T06:56:33;101623.53;;;1.76;51.27
77047;BME280;65977;56.380;44.022;2023-02-10T06:58:58;101629.84;;;1.69;50.55
77047;BME280;65977;56.380;44.022;2023-02-10T07:01:24;101618.44;;;1.73;51.15
77047;BME280;65977;56.380;44.022;2023-02-10T07:03:49;101607.91;;;1.76;50.70
77047;BME280;65977;56.380;44.022;2023-02-10T07:06:15;101621.50;;;1.85;50.63
77047;BME280;65977;56.380;44.022;2023-02-10T07:08:44;101609.41;;;1.83;50.57
77047;BME280;65977;56.380;44.022;2023-02-10T07:11:09;101610.56;;;1.74;50.44
77047;BME280;65977;56.380;44.022;2023-02-10T07:13:35;101606.75;;;1.84;50.41
77047;BME280;65977;56.380;44.022;2023-02-10T07:16:01;101601.00;;;1.75;50.15
77047;BME280;65977;56.380;44.022;2023-02-10T07:18:26;101612.72;;;1.88;50.41
77047;BME280;65977;56.380;44.022;2023-02-10T07:20:55;101592.59;;;1.91;50.62
77047;BME280;65977;56.380;44.022;2023-02-10T07:23:21;101594.59;;;1.85;50.39
77047;BME280;65977;56.380;44.022;2023-02-10T07:25:46;101596.22;;;1.87;50.16
77047;BME280;65977;56.380;44.022;2023-02-10T07:28:12;101592.31;;;1.74;50.31
77047;BME280;65977;56.380;44.022;2023-02-10T07:30:38;101579.34;;;1.73;50.55
77047;BME280;65977;56.380;44.022;2023-02-10T07:33:03;101580.16;;;1.75;50.91
77047;BME280;65977;56.380;44.022;2023-02-10T07:35:29;101566.72;;;1.87;50.56
77047;BME280;65977;56.380;44.022;2023-02-10T07:37:54;101569.50;;;1.81;50.72
77047;BME280;65977;56.380;44.022;2023-02-10T07:40:20;101573.91;;;1.80;50.43
77047;BME280;65977;56.380;44.022;2023-02-10T07:42:47;101576.13;;;1.91;50.60
77047;BME280;65977;56.380;44.022;2023-02-10T07:45:12;101549.34;;;1.86;50.63
77047;BME280;65977;56.380;44.022;2023-02-10T07:47:38;101548.53;;;1.85;50.30
77047;BME280;65977;56.380;44.022;2023-02-10T07:50:04;101554.38;;;1.92;50.49
77047;BME280;65977;56.380;44.022;2023-02-10T07:52:29;101555.16;;;1.69;50.57
77047;BME280;65977;56.380;44.022;2023-02-10T07:54:55;101548.03;;;1.74;51.04
77047;BME280;65977;56.380;44.022;2023-02-10T07:57:21;101551.84;;;1.64;51.36
77047;BME280;65977;56.380;44.022;2023-02-10T07:59:47;101549.41;;;1.60;51.82
77047;BME280;65977;56.380;44.022;2023-02-10T08:02:13;101540.88;;;1.55;51.76
77047;BME280;65977;56.380;44.022;2023-02-10T08:04:38;101547.94;;;1.51;51.64
77047;BME280;65977;56.380;44.022;2023-02-10T08:07:07;101540.06;;;1.53;51.56
77047;BME280;65977;56.380;44.022;2023-02-10T08:09:42;101535.06;;;1.47;52.11
77047;BME280;65977;56.380;44.022;2023-02-10T08:12:08;101537.41;;;1.54;52.24
77047;BME280;65977;56.380;44.022;2023-02-10T08:14:34;101537.50;;;1.51;51.85
77047;BME280;65977;56.380;44.022;2023-02-10T08:16:59;101531.44;;;1.51;51.85
77047;BME280;65977;56.380;44.022;2023-02-10T08:19:25;101521.88;;;1.51;51.77
77047;BME280;65977;56.380;44.022;2023-02-10T08:21:51;101518.53;;;1.48;51.97
77047;BME280;65977;56.380;44.022;2023-02-10T08:24:16;101519.63;;;1.41;52.14
77047;BME280;65977;56.380;44.022;2023-02-10T08:26:42;101528.38;;;1.40;52.56
77047;BME280;65977;56.380;44.022;2023-02-10T08:29:08;101516.06;;;1.43;52.32
77047;BME280;65977;56.380;44.022;2023-02-10T08:31:34;101501.16;;;1.48;52.40
77047;BME280;65977;56.380;44.022;2023-02-10T08:34:00;101493.19;;;1.53;52.66
77047;BME280;65977;56.380;44.022;2023-02-10T08:36:25;101514.97;;;1.50;52.28
77047;BME280;65977;56.380;44.022;2023-02-10T08:38:51;101495.00;;;1.51;52.23
77047;BME280;65977;56.380;44.022;2023-02-10T08:41:17;101486.44;;;1.47;52.01
77047;BME280;65977;56.380;44.022;2023-02-10T08:43:43;101479.44;;;1.49;52.11
77047;BME280;65977;56.380;44.022;2023-02-10T08:46:09;101495.47;;;1.37;52.34
77047;BME280;65977;56.380;44.022;2023-02-10T08:48:35;101494.00;;;1.28;52.15
77047;BME280;65977;56.380;44.022;2023-02-10T08:51:08;101494.78;;;1.31;52.47
77047;BME280;65977;56.380;44.022;2023-02-10T08:53:34;101483.50;;;1.32;52.66
77047;BME280;65977;56.380;44.022;2023-02-10T08:56:03;101481.34;;;1.44;52.41
77047;BME280;65977;56.380;44.022;2023-02-10T08:58:30;101469.09;;;1.46;52.10
77047;BME280;65977;56.380;44.022;2023-02-10T09:00:55;101461.22;;;1.48;52.18
77047;BME280;65977;56.380;44.022;2023-02-10T09:03:21;101458.44;;;1.54;51.43
77047;BME280;65977;56.380;44.022;2023-02-10T09:05:47;101461.66;;;1.60;51.57
77047;BME280;65977;56.380;44.022;2023-02-10T09:08:15;101418.47;;;1.55;51.06
77047;BME280;65977;56.380;44.022;2023-02-10T09:10:42;101422.38;;;1.66;50.82
77047;BME280;65977;56.380;44.022;2023-02-10T09:13:08;101424.25;;;1.87;50.86
77047;BME280;65977;56.380;44.022;2023-02-10T09:15:39;101431.81;;;1.93;50.59
77047;BME280;65977;56.380;44.022;2023-02-10T09:18:06;101439.91;;;1.86;49.82
77047;BME280;65977;56.380;44.022;2023-02-10T09:20:32;101437.63;;;2.02;50.37
77047;BME280;65977;56.380;44.022;2023-02-10T09:22:58;101438.00;;;1.91;49.65
77047;BME280;65977;56.380;44.022;2023-02-10T09:25:24;101412.41;;;2.02;49.90
77047;BME280;65977;56.380;44.022;2023-02-10T09:27:51;101411.22;;;2.11;49.35
77047;BME280;65977;56.380;44.022;2023-02-10T09:30:18;101412.72;;;2.16;49.06
77047;BME280;65977;56.380;44.022;2023-02-10T09:32:44;101378.59;;;2.01;48.84
77047;BME280;65977;56.380;44.022;2023-02-10T09:35:09;101378.97;;;2.13;49.28
77047;BME280;65977;56.380;44.022;2023-02-10T09:37:35;101377.72;;;2.23;49.08
77047;BME280;65977;56.380;44.022;2023-02-10T09:40:01;101379.28;;;2.27;49.19
77047;BME280;65977;56.380;44.022;2023-02-10T09:42:45;101374.97;;;2.26;48.59
77047;BME280;65977;56.380;44.022;2023-02-10T09:45:20;101373.78;;;2.13;48.90
77047;BME280;65977;56.380;44.022;2023-02-10T09:47:50;101371.59;;;2.24;49.02
77047;BME280;65977;56.380;44.022;2023-02-10T09:50:30;101364.84;;;2.19;48.84
77047;BME280;65977;56.380;44.022;2023-02-10T09:55:48;101362.53;;;2.11;48.93
77047;BME280;65977;56.380;44.022;2023-02-10T09:58:43;101365.59;;;1.99;49.03
77047;BME280;65977;56.380;44.022;2023-02-10T10:01:37;101367.63;;;1.91;49.07
77047;BME280;65977;56.380;44.022;2023-02-10T10:04:13;101368.16;;;1.77;49.76
77047;BME280;65977;56.380;44.022;2023-02-10T10:06:48;101348.31;;;1.73;49.99
77047;BME280;65977;56.380;44.022;2023-02-10T10:09:33;101350.41;;;1.64;50.22
77047;BME280;65977;56.380;44.022;2023-02-10T10:12:01;101336.22;;;1.48;50.30
77047;BME280;65977;56.380;44.022;2023-02-10T10:14:31;101347.31;;;1.30;50.50
77047;BME280;65977;56.380;44.022;2023-02-10T10:31:03;101308.59;;;0.96;52.38
77047;BME280;65977;56.380;44.022;2023-02-10T10:36:13;101311.78;;;1.04;52.17
77047;BME280;65977;56.380;44.022;2023-02-10T10:39:03;101303.81;;;1.08;51.77
77047;BME280;65977;56.380;44.022;2023-02-10T10:41:32;101297.91;;;1.03;52.02
77047;BME280;65977;56.380;44.022;2023-02-10T10:44:00;101298.13;;;0.97;52.33
77047;BME280;65977;56.380;44.022;2023-02-10T10:46:48;101296.38;;;0.98;52.05
77047;BME280;65977;56.380;44.022;2023-02-10T10:49:15;101277.63;;;0.88;52.46
77047;BME280;65977;56.380;44.022;2023-02-10T10:51:41;101283.00;;;0.84;52.21
77047;BME280;65977;56.380;44.022;2023-02-10T10:54:16;101284.03;;;0.78;52.50
77047;BME280;65977;56.380;44.022;2023-02-10T10:59:27;101269.66;;;0.68;53.19
77047;BME280;65977;56.380;44.022;2023-02-10T11:01:54;101269.34;;;0.51;53.88
77047;BME280;65977;56.380;44.022;2023-02-10T11:04:23;101248.44;;;0.54;53.61
77047;BME280;65977;56.380;44.022;2023-02-10T11:06:52;101262.72;;;0.42;53.53
77047;BME280;65977;56.380;44.022;2023-02-10T11:09:23;101247.06;;;0.44;53.73
77047;BME280;65977;56.380;44.022;2023-02-10T11:11:53;101249.91;;;0.36;53.85
77047;BME280;65977;56.380;44.022;2023-02-10T11:14:25;101232.47;;;0.40;54.10
77047;BME280;65977;56.380;44.022;2023-02-10T11:16:53;101230.34;;;0.51;54.08
77047;BME280;65977;56.380;44.022;2023-02-10T11:19:25;101225.81;;;0.57;53.95
77047;BME280;65977;56.380;44.022;2023-02-10T11:21:52;101215.34;;;0.59;53.77
77047;BME280;65977;56.380;44.022;2023-02-10T11:24:30;101216.63;;;0.72;53.85
77047;BME280;65977;56.380;44.022;2023-02-10T11:27:03;101205.16;;;0.78;53.63
77047;BME280;65977;56.380;44.022;2023-02-10T11:29:45;101199.78;;;0.82;53.31
77047;BME280;65977;56.380;44.022;2023-02-10T11:32:23;101188.16;;;0.92;52.86
77047;BME280;65977;56.380;44.022;2023-02-10T11:34:51;101187.00;;;0.99;52.53
77047;BME280;65977;56.380;44.022;2023-02-10T11:37:30;101191.94;;;1.07;52.91
77047;BME280;65977;56.380;44.022;2023-02-10T11:40:00;101185.00;;;1.07;52.65
77047;BME280;65977;56.380;44.022;2023-02-10T11:42:29;101182.34;;;1.09;52.84
77047;BME280;65977;56.380;44.022;2023-02-10T11:45:02;101176.59;;;0.99;52.98
77047;BME280;65977;56.380;44.022;2023-02-10T11:47:31;101182.66;;;1.00;52.65
77047;BME280;65977;56.380;44.022;2023-02-10T11:49:57;101166.16;;;1.01;53.18
77047;BME280;65977;56.380;44.022;2023-02-10T11:52:26;101166.84;;;1.06;52.45
77047;BME280;65977;56.380;44.022;2023-02-10T11:54:54;101175.81;;;0.97;52.89
77047;BME280;65977;56.380;44.022;2023-02-10T12:01:03;101152.97;;;0.82;53.71
77047;BME280;65977;56.380;44.022;2023-02-10T12:03:50;101166.25;;;0.75;53.72
77047;BME280;65977;56.380;44.022;2023-02-10T12:09:52;101155.13;;;0.71;53.53
77047;BME280;65977;56.380;44.022;2023-02-10T12:13:22;101165.38;;;0.74;53.59
77047;BME280;65977;56.380;44.022;2023-02-10T12:18:53;101155.16;;;0.70;53.74
77047;BME280;65977;56.380;44.022;2023-02-10T12:21:57;101156.19;;;0.66;53.63
77047;BME280;65977;56.380;44.022;2023-02-10T12:24:39;101149.44;;;0.60;53.59
77047;BME280;65977;56.380;44.022;2023-02-10T12:27:30;101141.47;;;0.64;53.59
77047;BME280;65977;56.380;44.022;2023-02-10T12:49:14;101145.97;;;0.59;54.32
77047;BME280;65977;56.380;44.022;2023-02-10T12:54:21;101156.66;;;0.52;55.21
77047;BME280;65977;56.380;44.022;2023-02-10T12:57:07;101142.06;;;0.48;55.05
77047;BME280;65977;56.380;44.022;2023-02-10T12:59:59;101134.28;;;0.48;54.70
77047;BME280;65977;56.380;44.022;2023-02-10T13:05:02;101141.41;;;0.41;55.27
77047;BME280;65977;56.380;44.022;2023-02-10T13:12:44;101130.16;;;0.41;55.34
77047;BME280;65977;56.380;44.022;2023-02-10T13:16:00;101129.28;;;0.42;55.23
77047;BME280;65977;56.380;44.022;2023-02-10T13:18:23;101120.16;;;0.30;55.57
77047;BME280;65977;56.380;44.022;2023-02-10T13:23:58;101141.00;;;0.29;55.74
77047;BME280;65977;56.380;44.022;2023-02-10T13:26:35;101117.84;;;0.23;56.33
77047;BME280;65977;56.380;44.022;2023-02-10T13:34:44;101119.47;;;0.25;55.84
77047;BME280;65977;56.380;44.022;2023-02-10T13:37:22;101110.50;;;0.09;56.68
77047;BME280;65977;56.380;44.022;2023-02-10T13:40:00;101103.66;;;0.07;56.91
77047;BME280;65977;56.380;44.022;2023-02-10T13:42:34;101113.34;;;0.02;56.62
77047;BME280;65977;56.380;44.022;2023-02-10T13:45:05;101120.44;;;-0.04;57.18
77047;BME280;65977;56.380;44.022;2023-02-10T13:47:38;101094.63;;;-0.08;56.95
77047;BME280;65977;56.380;44.022;2023-02-10T13:57:54;101083.84;;;-0.22;57.81
77047;BME280;65977;56.380;44.022;2023-02-10T14:05:54;101083.47;;;-0.38;58.02
77047;BME280;65977;56.380;44.022;2023-02-10T14:08:30;101084.25;;;-0.34;58.21
77047;BME280;65977;56.380;44.022;2023-02-10T14:13:30;101055.06;;;-0.41;57.97
77047;BME280;65977;56.380;44.022;2023-02-10T14:15:59;101055.16;;;-0.44;57.98
77047;BME280;65977;56.380;44.022;2023-02-10T14:18:34;101039.41;;;-0.39;57.57
77047;BME280;65977;56.380;44.022;2023-02-10T14:23:35;101049.88;;;-0.41;57.85
77047;BME280;65977;56.380;44.022;2023-02-10T14:26:18;101031.56;;;-0.38;57.72
77047;BME280;65977;56.380;44.022;2023-02-10T14:28:50;101001.63;;;-0.48;57.38
77047;BME280;65977;56.380;44.022;2023-02-10T14:31:25;101018.03;;;-0.46;57.24
77047;BME280;65977;56.380;44.022;2023-02-10T14:33:57;101016.47;;;-0.51;57.52
77047;BME280;65977;56.380;44.022;2023-02-10T14:36:24;101014.03;;;-0.56;57.44
77047;BME280;65977;56.380;44.022;2023-02-10T14:38:55;100980.97;;;-0.51;57.09
77047;BME280;65977;56.380;44.022;2023-02-10T14:41:22;100969.94;;;-0.57;57.39
77047;BME280;65977;56.380;44.022;2023-02-10T14:43:49;100970.81;;;-0.58;56.85
77047;BME280;65977;56.380;44.022;2023-02-10T14:46:21;100998.81;;;-0.67;57.38
77047;BME280;65977;56.380;44.022;2023-02-10T14:48:48;100971.31;;;-0.72;57.03
77047;BME280;65977;56.380;44.022;2023-02-10T14:51:23;100972.78;;;-0.65;56.60
77047;BME280;65977;56.380;44.022;2023-02-10T14:53:50;100946.25;;;-0.73;57.12
77047;BME280;65977;56.380;44.022;2023-02-10T14:56:22;100952.19;;;-0.70;56.79
77047;BME280;65977;56.380;44.022;2023-02-10T14:58:48;100936.78;;;-0.74;56.84
77047;BME280;65977;56.380;44.022;2023-02-10T15:03:49;100935.13;;;-0.77;56.33